createdAt,value
2023-05-11T00:00:05.335Z,6.88
2023-05-11T00:02:31.996Z,6.70
2023-05-11T00:04:58.882Z,8.10
2023-05-11T00:07:25.475Z,7.65
2023-05-11T00:09:52.049Z,8.18
2023-05-11T00:12:18.624Z,8.73
2023-05-11T00:14:45.592Z,8.23
2023-05-11T00:17:12.151Z,8.68
2023-05-11T00:19:38.786Z,8.35
2023-05-11T00:22:05.400Z,7.50
2023-05-11T00:24:31.965Z,7.72
2023-05-11T00:26:58.499Z,7.32
2023-05-11T00:29:25.550Z,8.85
2023-05-11T00:31:52.228Z,8.38
2023-05-11T00:34:18.936Z,7.25
2023-05-11T00:36:45.774Z,6.90
2023-05-11T00:39:12.541Z,7.15
2023-05-11T00:41:39.497Z,6.68
2023-05-11T00:44:06.616Z,6.53
2023-05-11T00:46:33.813Z,5.90
2023-05-11T00:49:00.596Z,6.47
2023-05-11T00:51:27.788Z,6.03
2023-05-11T00:53:54.518Z,6.78
2023-05-11T00:56:21.878Z,8.13
2023-05-11T00:58:48.804Z,6.00
2023-05-11T01:01:17.902Z,6.78
2023-05-11T01:03:45.412Z,7.90
2023-05-11T01:06:29.010Z,7.68
2023-05-11T01:09:03.956Z,8.15
2023-05-11T01:11:53.619Z,7.35
2023-05-11T01:14:48.896Z,7.35
2023-05-11T01:17:25.561Z,7.28
2023-05-11T01:19:58.644Z,6.85
2023-05-11T01:22:48.652Z,7.65
2023-05-11T01:25:41.802Z,8.30
2023-05-11T01:28:45.034Z,7.43
2023-05-11T01:31:15.318Z,7.25
2023-05-11T01:33:51.320Z,8.50
2023-05-11T01:36:20.952Z,7.03
2023-05-11T01:38:49.379Z,8.45
2023-05-11T01:41:19.682Z,7.47
2023-05-11T01:43:53.518Z,6.90
2023-05-11T01:46:23.312Z,7.57
2023-05-11T01:48:52.593Z,8.18
2023-05-11T01:51:20.122Z,7.15
2023-05-11T01:53:47.897Z,7.90
2023-05-11T01:56:15.248Z,7.47
2023-05-11T01:58:43.603Z,6.68
2023-05-11T02:01:11.786Z,7.82
2023-05-11T02:03:39.633Z,7.13
2023-05-11T02:06:07.924Z,7.65
2023-05-11T02:08:36.012Z,7.20
2023-05-11T02:11:04.350Z,7.95
2023-05-11T02:13:33.286Z,7.95
2023-05-11T02:16:00.822Z,6.95
2023-05-11T02:18:29.124Z,7.13
2023-05-11T02:20:58.148Z,8.02
2023-05-11T02:23:26.402Z,7.35
2023-05-11T02:25:54.166Z,6.90
2023-05-11T02:28:20.913Z,7.22
2023-05-11T02:30:50.263Z,7.03
2023-05-11T02:33:23.329Z,7.68
2023-05-11T02:35:51.129Z,7.38
2023-05-11T02:38:18.402Z,7.93
2023-05-11T02:40:51.326Z,7.70
2023-05-11T02:43:24.466Z,8.25
2023-05-11T02:45:58.332Z,7.63
2023-05-11T02:48:28.410Z,7.80
2023-05-11T02:50:56.546Z,7.78
2023-05-11T02:53:27.571Z,7.93
2023-05-11T02:55:56.137Z,7.68
2023-05-11T02:58:23.738Z,7.05
2023-05-11T03:00:51.406Z,7.03
2023-05-11T03:03:18.156Z,7.20
2023-05-11T03:05:44.988Z,7.43
2023-05-11T03:08:11.696Z,7.55
2023-05-11T03:10:39.520Z,7.90
2023-05-11T03:13:07.620Z,7.80
2023-05-11T03:15:34.477Z,8.32
2023-05-11T03:18:02.850Z,7.60
2023-05-11T03:20:30.671Z,7.57
2023-05-11T03:22:57.600Z,8.32
2023-05-11T03:25:25.120Z,7.97
2023-05-11T03:27:53.457Z,8.45
2023-05-11T03:30:20.635Z,7.03
2023-05-11T03:32:47.605Z,7.85
2023-05-11T03:35:14.297Z,7.20
2023-05-11T03:37:42.398Z,7.07
2023-05-11T03:40:10.277Z,7.07
2023-05-11T03:42:38.681Z,7.47
2023-05-11T03:45:07.653Z,6.95
2023-05-11T03:47:35.942Z,6.78
2023-05-11T03:50:03.833Z,6.53
2023-05-11T03:52:31.983Z,6.00
2023-05-11T03:54:58.683Z,6.07
2023-05-11T03:57:26.451Z,6.38
2023-05-11T03:59:53.525Z,6.40
2023-05-11T04:02:20.320Z,5.50
2023-05-11T04:04:47.062Z,5.45
2023-05-11T04:07:13.640Z,5.28
2023-05-11T04:09:40.230Z,4.57
2023-05-11T04:12:06.904Z,4.53
2023-05-11T04:14:34.935Z,5.00
2023-05-11T04:17:01.816Z,4.18
2023-05-11T04:19:28.435Z,5.15
2023-05-11T04:21:54.990Z,5.18
2023-05-11T04:24:21.592Z,4.50
2023-05-11T04:26:48.260Z,4.80
2023-05-11T04:29:14.788Z,5.22
2023-05-11T04:31:41.415Z,5.85
2023-05-11T04:34:08.347Z,6.22
2023-05-11T04:36:34.954Z,5.60
2023-05-11T04:39:01.508Z,6.55
2023-05-11T04:41:28.429Z,5.85
2023-05-11T04:43:54.992Z,7.03
2023-05-11T04:46:22.794Z,5.65
2023-05-11T04:48:49.402Z,6.65
2023-05-11T04:51:16.285Z,6.00
2023-05-11T04:53:42.897Z,6.47
2023-05-11T04:56:09.479Z,6.10
2023-05-11T04:58:36.070Z,7.60
2023-05-11T05:01:02.636Z,7.35
2023-05-11T05:03:29.356Z,7.25
2023-05-11T05:05:57.214Z,6.97
2023-05-11T05:08:25.372Z,6.80
2023-05-11T05:10:51.905Z,6.15
2023-05-11T05:13:21.799Z,6.15
2023-05-11T05:15:50.406Z,6.88
2023-05-11T05:18:19.770Z,5.80
2023-05-11T05:20:49.912Z,5.35
2023-05-11T05:23:16.778Z,5.50
2023-05-11T05:25:43.906Z,5.35
2023-05-11T05:28:12.839Z,5.75
2023-05-11T05:30:39.528Z,4.47
2023-05-11T05:33:06.310Z,4.38
2023-05-11T05:35:32.952Z,4.28
2023-05-11T05:38:01.127Z,4.13
2023-05-11T05:40:28.973Z,5.10
2023-05-11T05:42:55.603Z,4.53
2023-05-11T05:45:24.043Z,4.50
2023-05-11T05:47:51.655Z,5.65
2023-05-11T05:50:18.555Z,5.22
2023-05-11T05:52:45.258Z,6.05
2023-05-11T05:55:13.611Z,5.80
2023-05-11T05:57:40.424Z,6.03
2023-05-11T06:00:11.101Z,5.95
2023-05-11T06:02:37.787Z,6.43
2023-05-11T06:05:04.736Z,5.43
2023-05-11T06:07:31.508Z,5.13
2023-05-11T06:09:58.070Z,5.43
2023-05-11T06:12:24.701Z,4.75
2023-05-11T06:14:51.629Z,5.38
2023-05-11T06:17:18.164Z,4.93
2023-05-11T06:19:44.820Z,5.18
2023-05-11T06:22:11.401Z,5.82
2023-05-11T06:24:38.036Z,5.47
2023-05-11T06:27:04.625Z,5.38
2023-05-11T06:29:31.228Z,5.82
2023-05-11T06:31:58.732Z,5.35
2023-05-11T06:34:25.529Z,5.18
2023-05-11T06:36:52.152Z,5.25
2023-05-11T06:39:18.696Z,5.47
2023-05-11T06:41:47.793Z,6.30
2023-05-11T06:44:15.954Z,5.57
2023-05-11T06:46:42.532Z,5.72
2023-05-11T06:49:09.380Z,5.18
2023-05-11T06:51:35.953Z,4.90
2023-05-11T06:54:05.065Z,5.80
2023-05-11T06:56:32.691Z,6.20
2023-05-11T06:59:01.190Z,5.72
2023-05-11T07:01:28.175Z,6.05
2023-05-11T07:03:55.114Z,6.40
2023-05-11T07:06:21.922Z,5.35
2023-05-11T07:08:50.335Z,5.72
2023-05-11T07:11:17.060Z,5.80
2023-05-11T07:13:45.160Z,5.72
2023-05-11T07:16:11.794Z,5.97
2023-05-11T07:18:38.496Z,6.40
2023-05-11T07:21:07.309Z,6.88
2023-05-11T07:23:34.081Z,6.95
2023-05-11T07:26:03.210Z,6.88
2023-05-11T07:28:29.749Z,7.78
2023-05-11T07:30:56.324Z,6.53
2023-05-11T07:33:24.846Z,6.70
2023-05-11T07:35:51.980Z,5.75
2023-05-11T07:38:19.115Z,6.07
2023-05-11T07:40:45.716Z,6.18
2023-05-11T07:43:12.743Z,6.18
2023-05-11T07:45:39.778Z,6.03
2023-05-11T07:48:06.557Z,5.80
2023-05-11T07:50:35.028Z,5.88
2023-05-11T07:53:02.037Z,6.30
2023-05-11T07:55:30.521Z,5.45
2023-05-11T07:57:59.460Z,5.82
2023-05-11T08:00:28.715Z,6.53
2023-05-11T08:02:55.556Z,5.95
2023-05-11T08:05:22.416Z,5.40
2023-05-11T08:07:49.515Z,6.15
2023-05-11T08:10:16.135Z,5.93
2023-05-11T08:12:42.812Z,6.10
2023-05-11T08:15:13.425Z,5.57
2023-05-11T08:17:40.057Z,5.05
2023-05-11T08:20:07.569Z,5.60
2023-05-11T08:22:34.209Z,5.22
2023-05-11T08:25:01.064Z,5.88
2023-05-11T08:27:27.696Z,6.13
2023-05-11T08:29:55.896Z,6.45
2023-05-11T08:32:22.504Z,6.05
2023-05-11T08:34:49.598Z,5.57
2023-05-11T08:37:16.354Z,5.65
2023-05-11T08:39:47.747Z,5.30
2023-05-11T08:42:17.900Z,5.47
2023-05-11T08:44:45.084Z,6.20
2023-05-11T08:49:44.207Z,5.75
2023-05-11T08:52:12.410Z,5.25
2023-05-11T08:54:39.242Z,5.38
2023-05-11T08:57:07.012Z,6.55
2023-05-11T08:59:36.536Z,6.03
2023-05-11T09:02:04.734Z,5.40
2023-05-11T09:04:35.580Z,6.85
2023-05-11T09:07:02.295Z,5.72
2023-05-11T09:09:28.930Z,5.80
2023-05-11T09:11:55.745Z,5.18
2023-05-11T09:14:27.137Z,5.35
2023-05-11T09:16:54.178Z,5.20
2023-05-11T09:19:21.773Z,5.00
2023-05-11T09:21:48.386Z,5.68
2023-05-11T09:24:14.979Z,6.00
2023-05-11T09:26:41.654Z,5.97
2023-05-11T09:29:08.316Z,6.20
2023-05-11T09:31:46.122Z,6.45
2023-05-11T09:34:20.189Z,6.05
2023-05-11T09:36:52.454Z,6.72
2023-05-11T09:39:41.270Z,6.18
2023-05-11T09:42:15.640Z,5.55
2023-05-11T09:44:43.213Z,6.57
2023-05-11T09:47:21.042Z,6.13
2023-05-11T09:49:48.215Z,6.35
2023-05-11T09:52:19.725Z,6.00
2023-05-11T09:54:48.370Z,6.15
2023-05-11T09:57:29.669Z,5.80
2023-05-11T09:59:57.994Z,6.55
2023-05-11T10:02:29.455Z,7.43
2023-05-11T10:05:03.123Z,7.25
2023-05-11T10:07:33.462Z,6.32
2023-05-11T10:10:11.634Z,7.30
2023-05-11T10:12:40.212Z,6.72
2023-05-11T10:15:11.189Z,6.15
2023-05-11T10:17:38.163Z,6.43
2023-05-11T10:20:06.563Z,7.07
2023-05-11T10:22:33.708Z,6.05
2023-05-11T10:25:01.455Z,6.07
2023-05-11T10:27:28.570Z,6.40
2023-05-11T10:29:58.593Z,6.65
2023-05-11T10:32:25.713Z,5.20
2023-05-11T10:34:53.741Z,5.57
2023-05-11T10:37:23.994Z,5.22
2023-05-11T10:39:52.751Z,5.20
2023-05-11T10:42:49.752Z,6.18
2023-05-11T10:45:16.706Z,5.32
2023-05-11T10:47:56.532Z,5.40
2023-05-11T10:50:51.858Z,6.22
2023-05-11T10:53:43.286Z,5.72
2023-05-11T10:56:38.658Z,5.63
2023-05-11T10:59:34.241Z,4.93
2023-05-11T11:02:01.820Z,4.82
2023-05-11T11:04:49.518Z,4.47
2023-05-11T11:07:22.326Z,5.45
2023-05-11T11:09:56.071Z,4.45
2023-05-11T11:12:27.483Z,4.47
2023-05-11T11:15:08.251Z,4.85
2023-05-11T11:17:36.124Z,5.82
2023-05-11T11:20:07.425Z,5.15
2023-05-11T11:22:41.455Z,5.13
2023-05-11T11:25:10.981Z,5.43
2023-05-11T11:27:40.510Z,4.97
2023-05-11T11:30:22.622Z,4.05
2023-05-11T11:32:50.959Z,5.90
2023-05-11T11:35:39.162Z,5.15
2023-05-11T11:38:10.550Z,4.57
2023-05-11T11:40:50.593Z,5.07
2023-05-11T11:43:21.386Z,4.63
2023-05-11T11:46:06.193Z,4.93
2023-05-11T11:48:37.412Z,4.35
2023-05-11T11:51:08.956Z,4.45
2023-05-11T11:53:39.401Z,5.32
2023-05-11T11:56:16.988Z,5.00
2023-05-11T11:58:44.413Z,4.55
2023-05-11T12:01:17.777Z,4.43
2023-05-11T12:03:50.852Z,4.38
2023-05-11T12:06:21.557Z,4.70
2023-05-11T12:08:49.478Z,4.75
2023-05-11T12:11:17.526Z,4.45
2023-05-11T12:13:46.385Z,4.38
2023-05-11T12:16:18.226Z,4.97
2023-05-11T12:19:11.023Z,4.68
2023-05-11T12:21:39.304Z,4.80
2023-05-11T12:24:06.721Z,4.75
2023-05-11T12:26:34.504Z,5.07
2023-05-11T12:29:12.536Z,4.60
2023-05-11T12:31:41.326Z,4.85
2023-05-11T12:34:16.582Z,3.60
2023-05-11T12:36:45.207Z,4.82
2023-05-11T12:39:23.344Z,3.60
2023-05-11T12:41:51.538Z,4.50
2023-05-11T12:44:19.096Z,4.72
2023-05-11T12:46:50.186Z,4.90
2023-05-11T12:49:24.847Z,5.45
2023-05-11T12:52:02.106Z,5.93
2023-05-11T12:54:34.296Z,5.50
2023-05-11T12:57:02.829Z,5.28
2023-05-11T12:59:37.799Z,4.45
2023-05-11T13:02:11.379Z,5.10
2023-05-11T13:04:40.378Z,5.45
2023-05-11T13:07:07.317Z,5.13
2023-05-11T13:09:35.525Z,5.32
2023-05-11T13:12:17.303Z,5.85
2023-05-11T13:14:50.360Z,4.93
2023-05-11T13:17:57.431Z,5.05
2023-05-11T13:20:29.910Z,5.47
2023-05-11T13:23:16.951Z,5.28
2023-05-11T13:25:48.155Z,5.38
2023-05-11T13:28:16.445Z,5.32
2023-05-11T13:30:43.579Z,6.25
2023-05-11T13:33:12.021Z,5.68
2023-05-11T13:35:39.844Z,5.55
2023-05-11T13:38:06.882Z,5.18
2023-05-11T13:40:34.868Z,5.07
2023-05-11T13:43:01.694Z,4.38
2023-05-11T13:45:28.468Z,5.43
2023-05-11T13:47:55.511Z,6.53
2023-05-11T13:50:23.265Z,5.82
2023-05-11T13:52:51.540Z,6.28
2023-05-11T13:55:18.733Z,6.00
2023-05-11T13:57:45.662Z,5.57
2023-05-11T14:00:14.342Z,6.60
2023-05-11T14:02:41.021Z,6.20
2023-05-11T14:05:08.616Z,6.43
2023-05-11T14:07:46.407Z,5.85
2023-05-11T14:10:14.369Z,6.75
2023-05-11T14:12:41.414Z,5.72
2023-05-11T14:15:08.767Z,5.35
2023-05-11T14:17:35.432Z,4.93
2023-05-11T14:20:02.239Z,5.50
2023-05-11T14:22:29.172Z,5.00
2023-05-11T14:24:56.141Z,5.35
2023-05-11T14:27:23.756Z,5.47
2023-05-11T14:29:52.053Z,5.57
2023-05-11T14:32:21.363Z,6.40
2023-05-11T14:34:48.579Z,5.97
2023-05-11T14:37:15.603Z,5.50
2023-05-11T14:39:44.281Z,5.38
2023-05-11T14:42:10.867Z,5.30
2023-05-11T14:44:37.812Z,5.32
2023-05-11T14:47:05.363Z,6.07
2023-05-11T14:49:32.229Z,5.32
2023-05-11T14:51:59.346Z,5.35
2023-05-11T14:54:25.970Z,4.78
2023-05-11T14:56:54.905Z,4.95
2023-05-11T14:59:24.248Z,5.93
2023-05-11T15:01:51.278Z,5.78
2023-05-11T15:04:20.201Z,5.35
2023-05-11T15:06:46.836Z,5.43
2023-05-11T15:09:13.561Z,5.85
2023-05-11T15:11:42.313Z,5.00
2023-05-11T15:14:09.032Z,5.55
2023-05-11T15:16:35.716Z,5.88
2023-05-11T15:19:03.229Z,5.68
2023-05-11T15:21:30.178Z,5.70
2023-05-11T15:23:56.823Z,5.43
2023-05-11T15:26:26.336Z,6.22
2023-05-11T15:28:52.903Z,6.10
2023-05-11T15:31:19.689Z,5.78
2023-05-11T15:33:46.356Z,6.10
2023-05-11T15:36:15.430Z,6.40
2023-05-11T15:38:45.126Z,6.90
2023-05-11T15:41:11.712Z,6.20
2023-05-11T15:43:40.555Z,6.25
2023-05-11T15:46:07.633Z,7.30
2023-05-11T15:48:39.771Z,7.32
2023-05-11T15:51:06.350Z,6.78
2023-05-11T15:53:35.008Z,6.78
2023-05-11T15:56:01.569Z,8.60
2023-05-11T15:58:29.210Z,8.00
2023-05-11T16:03:23.378Z,8.43
2023-05-11T16:05:50.079Z,7.95
2023-05-11T16:08:17.388Z,9.05
2023-05-11T16:10:43.995Z,8.10
2023-05-11T16:13:11.019Z,7.60
2023-05-11T16:15:37.667Z,7.55
2023-05-11T16:18:05.374Z,7.85
2023-05-11T16:20:32.368Z,8.18
2023-05-11T16:23:02.290Z,7.85
2023-05-11T16:25:29.372Z,7.15
2023-05-11T16:27:57.035Z,7.53
2023-05-11T16:30:25.484Z,8.48
2023-05-11T16:32:54.622Z,8.40
2023-05-11T16:35:21.157Z,7.65
2023-05-11T16:37:48.193Z,9.00
2023-05-11T16:40:18.309Z,8.30
2023-05-11T16:42:46.751Z,8.40
2023-05-11T16:45:13.489Z,9.30
2023-05-11T16:47:40.206Z,9.10
2023-05-11T16:50:07.054Z,8.52
2023-05-11T16:52:33.842Z,8.80
2023-05-11T16:55:02.010Z,9.23
2023-05-11T16:57:28.931Z,8.98
2023-05-11T16:59:55.511Z,9.27
2023-05-11T17:02:22.192Z,9.57
2023-05-11T17:04:48.850Z,9.68
2023-05-11T17:07:16.107Z,10.07
2023-05-11T17:09:43.211Z,10.38
2023-05-11T17:12:16.122Z,10.23
2023-05-11T17:14:42.690Z,10.75
2023-05-11T17:17:09.537Z,9.80
2023-05-11T17:19:36.112Z,10.88
2023-05-11T17:22:05.111Z,11.35
2023-05-11T17:24:31.738Z,10.77
2023-05-11T17:26:59.730Z,10.70
2023-05-11T17:29:26.351Z,12.48
2023-05-11T17:31:53.238Z,10.82
2023-05-11T17:34:22.367Z,10.50
2023-05-11T17:36:51.385Z,11.23
2023-05-11T17:39:19.191Z,11.70
2023-05-11T17:41:45.874Z,11.27
2023-05-11T17:44:13.278Z,12.43
2023-05-11T17:46:39.835Z,11.90
2023-05-11T17:49:07.003Z,11.55
2023-05-11T17:51:33.592Z,11.18
2023-05-11T17:54:00.192Z,12.88
2023-05-11T17:56:26.874Z,11.45
2023-05-11T17:58:53.464Z,10.82
2023-05-11T18:01:23.470Z,10.82
2023-05-11T18:03:51.940Z,12.00
2023-05-11T18:06:18.699Z,12.57
2023-05-11T18:08:46.383Z,11.48
2023-05-11T18:11:13.765Z,11.75
2023-05-11T18:13:42.537Z,10.63
2023-05-11T18:16:11.422Z,11.52
2023-05-11T18:18:38.405Z,10.35
2023-05-11T18:21:12.499Z,10.60
2023-05-11T18:23:40.590Z,10.40
2023-05-11T18:26:07.577Z,10.70
2023-05-11T18:28:34.437Z,10.13
2023-05-11T18:31:01.052Z,10.15
2023-05-11T18:33:27.704Z,9.85
2023-05-11T18:35:54.394Z,10.55
2023-05-11T18:38:22.928Z,10.23
2023-05-11T18:40:49.486Z,9.40
2023-05-11T18:43:16.028Z,9.77
2023-05-11T18:45:46.766Z,9.48
2023-05-11T18:48:13.382Z,9.25
2023-05-11T18:50:40.381Z,9.55
2023-05-11T18:53:06.968Z,9.45
2023-05-11T18:55:44.790Z,9.18
2023-05-11T18:58:20.223Z,9.30
2023-05-11T19:00:48.538Z,9.00
2023-05-11T19:03:16.114Z,9.73
2023-05-11T19:05:43.614Z,10.02
2023-05-11T19:08:10.460Z,9.43
2023-05-11T19:10:39.317Z,9.02
2023-05-11T19:13:07.258Z,9.82
2023-05-11T19:15:34.081Z,9.00
2023-05-11T19:18:00.925Z,9.32
2023-05-11T19:20:27.731Z,10.70
2023-05-11T19:22:54.305Z,9.68
2023-05-11T19:25:20.924Z,10.35
2023-05-11T19:27:47.472Z,9.07
2023-05-11T19:30:14.273Z,9.45
2023-05-11T19:32:42.338Z,10.30
2023-05-11T19:35:11.654Z,9.75
2023-05-11T19:37:39.799Z,9.43
2023-05-11T19:40:43.001Z,10.13
2023-05-11T19:42:53.772Z,8.68
2023-05-11T19:45:20.481Z,9.80
2023-05-11T19:47:47.200Z,9.27
2023-05-11T19:50:14.707Z,8.75
2023-05-11T19:52:43.318Z,10.30
2023-05-11T19:55:12.057Z,11.32
2023-05-11T19:57:38.669Z,9.82
2023-05-11T20:00:06.967Z,11.05
2023-05-11T20:02:36.075Z,9.63
2023-05-11T20:05:05.176Z,9.93
2023-05-11T20:07:32.044Z,10.52
2023-05-11T20:09:58.627Z,8.63
2023-05-11T20:12:26.492Z,9.80
2023-05-11T20:14:53.178Z,9.32
2023-05-11T20:17:19.789Z,9.25
2023-05-11T20:19:46.370Z,10.38
2023-05-11T20:22:13.400Z,10.68
2023-05-11T20:24:39.979Z,9.10
2023-05-11T20:27:09.499Z,9.93
2023-05-11T20:29:41.783Z,9.60
2023-05-11T20:32:08.504Z,9.32
2023-05-11T20:34:37.285Z,9.07
2023-05-11T20:37:03.980Z,8.80
2023-05-11T20:39:30.661Z,9.70
2023-05-11T20:41:59.126Z,9.07
2023-05-11T20:44:26.169Z,9.10
2023-05-11T20:46:52.914Z,9.30
2023-05-11T20:49:30.878Z,8.20
2023-05-11T20:52:04.725Z,8.27
2023-05-11T20:54:33.732Z,8.50
2023-05-11T20:57:01.330Z,8.20
2023-05-11T21:01:59.680Z,7.53
2023-05-11T21:04:27.955Z,7.40
2023-05-11T21:06:54.874Z,7.20
2023-05-11T21:09:21.449Z,6.78
2023-05-11T21:11:48.782Z,6.95
2023-05-11T21:14:15.558Z,7.40
2023-05-11T21:16:42.242Z,6.97
2023-05-11T21:19:09.079Z,6.95
2023-05-11T21:21:35.729Z,6.78
2023-05-11T21:24:02.371Z,6.95
2023-05-11T21:26:28.954Z,6.97
2023-05-11T21:28:57.287Z,6.82
2023-05-11T21:31:23.872Z,7.30
2023-05-11T21:33:51.650Z,6.30
2023-05-11T21:36:18.266Z,6.57
2023-05-11T21:38:44.989Z,6.03
2023-05-11T21:41:11.645Z,6.95
2023-05-11T21:43:38.217Z,6.40
2023-05-11T21:46:05.187Z,6.35
2023-05-11T21:48:31.788Z,6.22
2023-05-11T21:50:58.329Z,5.82
2023-05-11T21:53:24.948Z,6.00
2023-05-11T21:55:51.525Z,6.35
2023-05-11T21:58:18.147Z,6.57
2023-05-11T22:00:45.210Z,6.60
2023-05-11T22:03:11.873Z,5.82
2023-05-11T22:05:38.547Z,5.18
2023-05-11T22:08:14.188Z,4.82
2023-05-11T22:10:42.817Z,5.50
2023-05-11T22:13:09.501Z,5.40
2023-05-11T22:15:36.198Z,4.90
2023-05-11T22:18:03.467Z,5.30
2023-05-11T22:20:31.503Z,5.40
2023-05-11T22:22:58.232Z,5.45
2023-05-11T22:25:24.841Z,5.40
2023-05-11T22:27:51.391Z,5.43
2023-05-11T22:30:18.322Z,5.35
2023-05-11T22:32:45.166Z,5.20
2023-05-11T22:35:11.784Z,5.53
2023-05-11T22:37:38.420Z,4.85
2023-05-11T22:40:05.580Z,4.93
2023-05-11T22:42:32.762Z,4.60
2023-05-11T22:44:59.378Z,4.95
2023-05-11T22:47:26.060Z,4.70
2023-05-11T22:49:52.710Z,4.45
2023-05-11T22:52:19.341Z,4.82
2023-05-11T22:54:46.303Z,4.93
2023-05-11T22:57:15.995Z,4.47
2023-05-11T22:59:42.985Z,4.55
2023-05-11T23:02:09.545Z,4.65
2023-05-11T23:04:36.196Z,4.72
2023-05-11T23:07:04.096Z,5.13
2023-05-11T23:09:30.649Z,4.32
2023-05-11T23:11:57.342Z,4.80
2023-05-11T23:14:23.986Z,4.78
2023-05-11T23:16:50.626Z,4.78
2023-05-11T23:19:17.336Z,4.85
2023-05-11T23:21:43.909Z,4.55
2023-05-11T23:24:10.460Z,4.68
2023-05-11T23:26:37.480Z,4.50
2023-05-11T23:29:04.697Z,4.65
2023-05-11T23:31:32.624Z,4.35
2023-05-11T23:33:59.720Z,4.10
2023-05-11T23:36:26.629Z,5.13
2023-05-11T23:38:53.663Z,4.45
2023-05-11T23:41:20.372Z,4.30
2023-05-11T23:43:46.979Z,4.43
2023-05-11T23:46:13.681Z,4.72
2023-05-11T23:48:40.333Z,4.80
2023-05-11T23:51:06.922Z,3.72
2023-05-11T23:53:33.533Z,4.40
2023-05-11T23:56:00.173Z,4.50
2023-05-11T23:58:26.786Z,4.40
